Dryden, New York
Current Conditions -  °F | °C
As of 5:35 AM on Monday 22 Dec 2014 (Local Time) from KN03 Reporting Station
Overcast Overcast  
Wind Chill: 24°   Ceiling: 1700
Heat Index: 30°   Visibility: 10mi
Dew Point: 27°   Wind: 6mph
Humidity: 86%   Direction: 160°SSE
Pressure: 30.25"   Gusts: NA
Location:  42.49°N, 76.3°W
Report Text: KN03 221035Z AUTO 16005KT 10SM OVC017 M01/M03 A3025 RMK AO2
Loading
Personal Weather Stations






























Interactive Weather Map New forecast layout! Learn more

10-Day Weather Forecast

Advertisements
Track Severe Weather on mobile